In Rescue
 
Open Full Screen Window  High Contrast Mode
Wind Gusting 00 knots
03
September 19, 2019 5:31 PM EDT
Weather Information
Wind Direction
  050 °
Wind Speed
  03 kt (3 mph)
Wind Gust
  00 kt (0 mph)
Altimeter
30.09 in
Visibility
10 SM
Temperature
23° C
73° F
Dewpoint
16° C
61° F
Humidity
65%
Sky Condition
Clear
VFR

METAR KPZQ 192131Z AUTO 05003KT 10SM CLR 23/16 A3009 RMK AO2 T02300163

FAA Disclaimer: The data displayed is for advisory purposes only and is not to be used for flight planning or operations.